createdAt,value
2022-12-20T00:00:12.160Z,-0.46
2022-12-20T00:02:40.748Z,-0.45
2022-12-20T00:05:09.799Z,-0.41
2022-12-20T00:07:38.316Z,-0.40
2022-12-20T00:10:09.256Z,-0.37
2022-12-20T00:12:37.832Z,-0.39
2022-12-20T00:15:08.225Z,-0.38
2022-12-20T00:17:36.880Z,-0.33
2022-12-20T00:20:08.779Z,-0.29
2022-12-20T00:22:37.397Z,-0.25
2022-12-20T00:25:07.700Z,-0.21
2022-12-20T00:27:36.266Z,-0.15
2022-12-20T00:30:06.958Z,-0.10
2022-12-20T00:32:35.551Z,-0.03
2022-12-20T00:35:05.018Z,0.01
2022-12-20T00:37:33.839Z,0.06
2022-12-20T00:40:04.307Z,0.10
2022-12-20T00:42:33.471Z,0.13
2022-12-20T00:45:02.045Z,0.16
2022-12-20T00:47:30.716Z,0.18
2022-12-20T00:49:59.306Z,0.20
2022-12-20T00:52:27.991Z,0.21
2022-12-20T00:54:56.576Z,0.22
2022-12-20T00:57:25.368Z,0.25
2022-12-20T00:59:53.952Z,0.30
2022-12-20T01:02:22.643Z,0.36
2022-12-20T01:04:51.544Z,0.43
2022-12-20T01:07:22.757Z,0.47
2022-12-20T01:09:52.490Z,0.52
2022-12-20T01:12:21.006Z,0.53
2022-12-20T01:14:49.622Z,0.56
2022-12-20T01:17:19.048Z,0.58
2022-12-20T01:19:47.655Z,0.61
2022-12-20T01:22:16.335Z,0.63
2022-12-20T01:24:44.946Z,0.67
2022-12-20T01:27:13.502Z,0.71
2022-12-20T01:29:42.016Z,0.75
2022-12-20T01:32:10.888Z,0.80
2022-12-20T01:34:39.889Z,0.84
2022-12-20T01:37:08.501Z,0.87
2022-12-20T01:39:38.285Z,0.88
2022-12-20T01:42:07.006Z,0.87
2022-12-20T01:44:59.682Z,0.87
2022-12-20T01:47:33.977Z,0.87
2022-12-20T01:50:04.572Z,0.86
2022-12-20T01:52:37.409Z,0.85
2022-12-20T01:55:10.961Z,0.85
2022-12-20T01:57:45.938Z,0.87
2022-12-20T02:00:16.545Z,0.88
2022-12-20T02:02:47.824Z,0.89
2022-12-20T02:05:19.419Z,0.92
2022-12-20T02:07:51.727Z,0.97
2022-12-20T02:10:23.978Z,1.02
2022-12-20T02:12:59.101Z,1.04
2022-12-20T02:15:41.185Z,1.02
2022-12-20T02:18:20.325Z,1.03
2022-12-20T02:21:12.680Z,1.05
2022-12-20T02:24:24.124Z,1.05
2022-12-20T02:27:05.333Z,1.07
2022-12-20T02:29:40.261Z,1.09
2022-12-20T02:32:17.715Z,1.13
2022-12-20T02:34:47.137Z,1.17
2022-12-20T02:37:15.724Z,1.18
2022-12-20T02:39:46.360Z,1.20
2022-12-20T02:42:19.797Z,1.25
2022-12-20T02:45:12.565Z,1.29
2022-12-20T02:47:48.134Z,1.33
2022-12-20T02:50:21.598Z,1.38
2022-12-20T02:52:51.046Z,1.41
2022-12-20T02:55:25.527Z,1.46
2022-12-20T02:58:00.625Z,1.48
2022-12-20T03:00:38.325Z,1.51
2022-12-20T03:03:22.642Z,1.50
2022-12-20T03:05:54.902Z,1.52
2022-12-20T03:08:24.372Z,1.51
2022-12-20T03:10:55.333Z,1.50
2022-12-20T03:13:24.945Z,1.52
2022-12-20T03:15:58.326Z,1.54
2022-12-20T03:18:27.019Z,1.58
2022-12-20T03:20:55.716Z,1.59
2022-12-20T03:23:24.665Z,1.57
2022-12-20T03:25:53.316Z,1.60
2022-12-20T03:28:31.730Z,1.64
2022-12-20T03:31:00.960Z,1.67
2022-12-20T03:33:30.829Z,1.71
2022-12-20T03:36:00.359Z,1.75
2022-12-20T03:38:29.136Z,1.79
2022-12-20T03:40:58.135Z,1.82
2022-12-20T03:43:27.434Z,1.82
2022-12-20T03:45:56.054Z,1.84
2022-12-20T03:48:24.727Z,1.85
2022-12-20T03:50:53.359Z,1.90
2022-12-20T03:53:22.075Z,1.91
2022-12-20T03:55:50.862Z,1.93
2022-12-20T03:58:19.635Z,1.96
2022-12-20T04:00:48.444Z,2.00
2022-12-20T04:03:37.465Z,2.04
2022-12-20T04:06:06.732Z,2.05
2022-12-20T04:08:35.418Z,2.10
2022-12-20T04:11:16.198Z,2.13
2022-12-20T04:14:07.347Z,2.17
2022-12-20T04:16:36.654Z,2.18
2022-12-20T04:19:06.868Z,2.20
2022-12-20T04:21:39.702Z,2.22
2022-12-20T04:24:08.927Z,2.24
2022-12-20T04:26:42.817Z,2.25
2022-12-20T04:29:12.269Z,2.26
2022-12-20T04:31:42.645Z,2.24
2022-12-20T04:34:11.480Z,2.26
2022-12-20T04:36:40.375Z,2.27
2022-12-20T04:39:12.807Z,2.28
2022-12-20T04:41:53.161Z,2.29
2022-12-20T04:44:21.786Z,2.28
2022-12-20T04:46:50.618Z,2.28
2022-12-20T04:49:20.227Z,2.27
2022-12-20T04:51:49.144Z,2.26
2022-12-20T04:54:17.933Z,2.23
2022-12-20T04:56:59.568Z,2.20
2022-12-20T04:59:29.606Z,2.20
2022-12-20T05:01:58.469Z,2.20
2022-12-20T05:04:53.534Z,2.20
2022-12-20T05:07:23.011Z,2.20
2022-12-20T05:09:56.338Z,2.21
2022-12-20T05:12:25.356Z,2.23
2022-12-20T05:14:54.202Z,2.25
2022-12-20T05:17:23.726Z,2.25
2022-12-20T05:19:55.283Z,2.26
2022-12-20T05:22:42.301Z,2.28
2022-12-20T05:25:31.683Z,2.30
2022-12-20T05:28:03.947Z,2.29
2022-12-20T05:30:35.924Z,2.28
2022-12-20T05:33:05.004Z,2.26
2022-12-20T05:35:34.106Z,2.24
2022-12-20T05:38:08.284Z,2.26
2022-12-20T05:40:37.710Z,2.26
2022-12-20T05:43:06.716Z,2.27
2022-12-20T05:45:38.747Z,2.26
2022-12-20T05:48:13.207Z,2.28
2022-12-20T05:50:43.594Z,2.34
2022-12-20T05:53:26.466Z,2.39
2022-12-20T05:55:58.033Z,2.44
2022-12-20T05:58:38.129Z,2.47
2022-12-20T06:01:09.717Z,2.51
2022-12-20T06:03:40.254Z,2.54
2022-12-20T06:06:14.881Z,2.55
2022-12-20T06:08:46.157Z,2.55
2022-12-20T06:11:29.415Z,2.56
2022-12-20T06:14:04.888Z,2.58
2022-12-20T06:16:34.302Z,2.60
2022-12-20T06:19:03.406Z,2.63
2022-12-20T06:21:32.094Z,2.66
2022-12-20T06:24:01.397Z,2.68
2022-12-20T06:26:35.611Z,2.67
2022-12-20T06:29:08.689Z,2.67
2022-12-20T06:31:56.296Z,2.69
2022-12-20T06:34:25.223Z,2.73
2022-12-20T06:36:54.345Z,2.73
2022-12-20T06:39:46.830Z,2.74
2022-12-20T06:42:18.752Z,2.77
2022-12-20T06:44:49.137Z,2.79
2022-12-20T06:47:36.087Z,2.81
2022-12-20T06:50:14.187Z,2.82
2022-12-20T06:52:47.102Z,2.85
2022-12-20T06:55:16.000Z,2.89
2022-12-20T06:57:44.674Z,2.91
2022-12-20T07:00:16.144Z,2.92
2022-12-20T07:02:45.275Z,2.93
2022-12-20T07:05:14.006Z,2.96
2022-12-20T07:07:45.146Z,2.99
2022-12-20T07:10:14.899Z,3.03
2022-12-20T07:12:48.085Z,3.07
2022-12-20T07:15:17.365Z,3.10
2022-12-20T07:17:46.095Z,3.13
2022-12-20T07:20:16.149Z,3.14
2022-12-20T07:22:47.119Z,3.17
2022-12-20T07:25:16.078Z,3.20
2022-12-20T07:27:49.150Z,3.23
2022-12-20T07:30:18.861Z,3.23
2022-12-20T07:32:48.079Z,3.23
2022-12-20T07:35:17.872Z,3.24
2022-12-20T07:37:46.463Z,3.26
2022-12-20T07:40:16.086Z,3.28
2022-12-20T07:42:48.869Z,3.31
2022-12-20T07:45:18.022Z,3.31
2022-12-20T07:47:46.604Z,3.29
2022-12-20T07:50:15.901Z,3.31
2022-12-20T07:52:46.812Z,3.35
2022-12-20T07:55:16.700Z,3.39
2022-12-20T07:57:48.943Z,3.43
2022-12-20T08:00:18.555Z,3.48
2022-12-20T08:02:54.588Z,3.52
2022-12-20T08:05:24.290Z,3.57
2022-12-20T08:07:59.011Z,3.59
2022-12-20T08:10:28.666Z,3.60
2022-12-20T08:12:58.425Z,3.61
2022-12-20T08:15:28.956Z,3.63
2022-12-20T08:17:57.941Z,3.65
2022-12-20T08:20:27.145Z,3.64
2022-12-20T08:22:55.684Z,3.62
2022-12-20T08:25:24.926Z,3.62
2022-12-20T08:27:53.512Z,3.65
2022-12-20T08:30:22.237Z,3.65
2022-12-20T08:32:51.603Z,3.66
2022-12-20T08:35:20.280Z,3.69
2022-12-20T08:37:51.028Z,3.72
2022-12-20T08:40:20.475Z,3.75
2022-12-20T08:42:49.121Z,3.77
2022-12-20T08:45:19.467Z,3.78
2022-12-20T08:47:48.070Z,3.82
2022-12-20T08:50:16.858Z,3.85
2022-12-20T08:52:45.796Z,3.86
2022-12-20T08:55:15.853Z,3.90
2022-12-20T08:57:44.395Z,3.94
2022-12-20T09:00:23.449Z,3.99
2022-12-20T09:02:54.395Z,4.03
2022-12-20T09:05:23.270Z,4.08
2022-12-20T09:07:51.828Z,4.13
2022-12-20T09:10:20.444Z,4.19
2022-12-20T09:12:48.923Z,4.24
2022-12-20T09:15:18.006Z,4.29
2022-12-20T09:17:47.096Z,4.35
2022-12-20T09:20:16.141Z,4.41
2022-12-20T09:22:44.595Z,4.48
2022-12-20T09:25:13.561Z,4.59
2022-12-20T09:27:41.902Z,4.70
2022-12-20T09:30:11.859Z,4.81
2022-12-20T09:32:40.535Z,4.96
2022-12-20T09:35:10.406Z,5.13
2022-12-20T09:37:38.888Z,5.36
2022-12-20T09:40:14.590Z,5.61
2022-12-20T09:42:43.139Z,5.85
2022-12-20T09:45:22.063Z,6.08
2022-12-20T09:47:51.720Z,6.35
2022-12-20T09:50:33.147Z,6.57
2022-12-20T09:53:18.051Z,6.81
2022-12-20T09:55:53.580Z,7.23
2022-12-20T09:58:37.652Z,7.63
2022-12-20T10:01:22.976Z,7.90
2022-12-20T10:03:52.708Z,8.16
2022-12-20T10:06:37.767Z,8.30
2022-12-20T10:09:13.062Z,8.34
2022-12-20T10:11:54.827Z,8.38
2022-12-20T10:14:50.904Z,8.42
2022-12-20T10:17:32.598Z,8.51
2022-12-20T10:20:22.401Z,8.63
2022-12-20T10:22:56.724Z,8.70
2022-12-20T10:25:30.119Z,8.76
2022-12-20T10:28:01.167Z,8.71
2022-12-20T10:30:32.202Z,8.53
2022-12-20T10:33:00.839Z,8.34
2022-12-20T10:35:31.172Z,8.17
2022-12-20T10:38:08.339Z,7.98
2022-12-20T10:41:18.606Z,7.80
2022-12-20T10:43:36.471Z,7.61
2022-12-20T10:46:07.905Z,7.49
2022-12-20T10:48:38.718Z,7.39
2022-12-20T10:51:16.818Z,7.30
2022-12-20T10:53:57.151Z,7.20
2022-12-20T10:56:27.518Z,7.11
2022-12-20T10:58:59.472Z,7.08
2022-12-20T11:01:31.929Z,7.02
2022-12-20T11:04:04.402Z,6.91
2022-12-20T11:06:44.906Z,6.81
2022-12-20T11:09:32.052Z,6.71
2022-12-20T11:12:04.684Z,6.63
2022-12-20T11:14:39.257Z,6.55
2022-12-20T11:17:23.690Z,6.49
2022-12-20T11:20:21.966Z,6.43
2022-12-20T11:23:00.340Z,6.34
2022-12-20T11:25:45.842Z,6.26
2022-12-20T11:28:32.967Z,6.17
2022-12-20T11:31:15.582Z,6.09
2022-12-20T11:34:03.241Z,6.02
2022-12-20T11:36:41.843Z,5.98
2022-12-20T11:39:24.442Z,5.95
2022-12-20T11:42:12.953Z,5.90
2022-12-20T11:45:03.371Z,5.86
2022-12-20T11:48:00.549Z,5.83
2022-12-20T11:50:42.322Z,5.80
2022-12-20T11:53:27.111Z,5.80
2022-12-20T11:56:02.669Z,5.82
2022-12-20T11:58:34.215Z,5.82
2022-12-20T12:01:09.748Z,5.84
2022-12-20T12:03:41.103Z,5.88
2022-12-20T12:06:20.542Z,5.92
2022-12-20T12:09:00.301Z,5.98
2022-12-20T12:12:05.225Z,6.04
2022-12-20T12:14:38.419Z,6.13
2022-12-20T12:17:13.703Z,6.21
2022-12-20T12:19:46.774Z,6.26
2022-12-20T12:22:22.607Z,6.31
2022-12-20T12:25:03.690Z,6.35
2022-12-20T12:27:33.090Z,6.36
2022-12-20T12:30:01.535Z,6.37
2022-12-20T12:32:37.202Z,6.39
2022-12-20T12:35:47.434Z,6.37
2022-12-20T12:39:06.992Z,6.33
2022-12-20T12:42:34.586Z,6.28
2022-12-20T12:45:06.706Z,6.24
2022-12-20T12:47:45.343Z,6.22
2022-12-20T12:50:24.681Z,6.19
2022-12-20T12:52:58.666Z,6.16
2022-12-20T12:55:42.888Z,6.14
2022-12-20T12:58:30.428Z,6.08
2022-12-20T13:01:00.769Z,6.05
2022-12-20T13:03:46.275Z,6.02
2022-12-20T13:06:53.813Z,5.98
2022-12-20T13:09:38.004Z,5.93
2022-12-20T13:12:48.629Z,5.89
2022-12-20T13:16:06.459Z,5.86
2022-12-20T13:18:35.118Z,5.78
2022-12-20T13:21:47.833Z,5.74
2022-12-20T13:24:49.754Z,5.70
2022-12-20T13:27:29.843Z,5.70
2022-12-20T13:30:17.999Z,5.67
2022-12-20T13:33:23.900Z,5.63
2022-12-20T13:36:04.828Z,5.60
2022-12-20T13:38:51.946Z,5.58
2022-12-20T13:41:37.000Z,5.59
2022-12-20T13:44:33.023Z,5.57
2022-12-20T13:47:06.545Z,5.54
2022-12-20T13:49:40.127Z,5.51
2022-12-20T13:52:25.196Z,5.50
2022-12-20T13:54:56.875Z,5.47
2022-12-20T13:57:30.462Z,5.46
2022-12-20T14:00:07.123Z,5.43
2022-12-20T14:02:42.132Z,5.41
2022-12-20T14:05:19.999Z,5.38
2022-12-20T14:07:55.547Z,5.36
2022-12-20T14:10:27.314Z,5.35
2022-12-20T14:12:56.612Z,5.34
2022-12-20T14:15:35.529Z,5.33
2022-12-20T14:18:17.700Z,5.31
2022-12-20T14:20:50.105Z,5.31
2022-12-20T14:23:22.091Z,5.32
2022-12-20T14:25:54.341Z,5.33
2022-12-20T14:28:45.143Z,5.29
2022-12-20T14:31:25.950Z,5.28
2022-12-20T14:34:04.603Z,5.27
2022-12-20T14:36:33.957Z,5.27
2022-12-20T14:39:21.153Z,5.26
2022-12-20T14:41:57.630Z,5.22
2022-12-20T14:44:28.256Z,5.21
2022-12-20T14:46:59.450Z,5.19
2022-12-20T14:49:31.647Z,5.19
2022-12-20T14:52:14.397Z,5.17
2022-12-20T14:57:44.306Z,5.13
2022-12-20T15:00:21.066Z,5.10
2022-12-20T15:02:58.884Z,5.06
2022-12-20T15:05:45.462Z,5.04
2022-12-20T15:08:16.134Z,5.02
2022-12-20T15:10:51.862Z,4.98
2022-12-20T15:13:22.547Z,4.95
2022-12-20T15:15:51.145Z,4.93
2022-12-20T15:18:21.705Z,4.91
2022-12-20T15:21:00.596Z,4.90
2022-12-20T15:23:29.509Z,4.90
2022-12-20T15:25:58.005Z,4.87
2022-12-20T15:28:27.196Z,4.81
2022-12-20T15:30:56.276Z,4.80
2022-12-20T15:33:26.634Z,4.78
2022-12-20T15:35:55.386Z,4.75
2022-12-20T15:38:41.289Z,4.74
2022-12-20T15:41:18.917Z,4.72
2022-12-20T15:43:50.329Z,4.70
2022-12-20T15:46:18.813Z,4.69
2022-12-20T15:48:47.284Z,4.68
2022-12-20T15:51:21.193Z,4.64
2022-12-20T15:53:49.754Z,4.62
2022-12-20T15:56:21.113Z,4.59
2022-12-20T15:58:52.063Z,4.57
2022-12-20T16:01:24.127Z,4.54
2022-12-20T16:03:52.983Z,4.52
2022-12-20T16:06:22.742Z,4.51
2022-12-20T16:08:51.149Z,4.48
2022-12-20T16:11:22.481Z,4.48
2022-12-20T16:13:51.892Z,4.46
2022-12-20T16:16:22.874Z,4.45
2022-12-20T16:18:53.127Z,4.44
2022-12-20T16:21:24.287Z,4.45
2022-12-20T16:23:53.542Z,4.43
2022-12-20T16:26:23.341Z,4.41
2022-12-20T16:28:53.345Z,4.39
2022-12-20T16:31:25.574Z,4.37
2022-12-20T16:33:55.170Z,4.37
2022-12-20T16:36:24.907Z,4.38
2022-12-20T16:38:54.261Z,4.39
2022-12-20T16:41:26.817Z,4.39
2022-12-20T16:43:56.912Z,4.40
2022-12-20T16:46:28.328Z,4.40
2022-12-20T16:48:58.265Z,4.40
2022-12-20T16:51:30.982Z,4.40
2022-12-20T16:54:18.661Z,4.39
2022-12-20T16:56:50.461Z,4.36
2022-12-20T16:59:21.142Z,4.33
2022-12-20T17:01:53.165Z,4.32
2022-12-20T17:04:23.037Z,4.33
2022-12-20T17:07:00.811Z,4.34
2022-12-20T17:12:22.154Z,4.38
2022-12-20T17:14:50.671Z,4.40
2022-12-20T17:17:19.518Z,4.40
2022-12-20T17:19:48.412Z,4.40
2022-12-20T17:22:25.062Z,4.39
2022-12-20T17:24:53.687Z,4.38
2022-12-20T17:27:25.314Z,4.38
2022-12-20T17:29:54.182Z,4.35
2022-12-20T17:32:24.625Z,4.31
2022-12-20T17:34:54.945Z,4.24
2022-12-20T17:37:24.449Z,4.20
2022-12-20T17:39:53.137Z,4.19
2022-12-20T17:42:27.045Z,4.18
2022-12-20T17:45:02.893Z,4.18
2022-12-20T17:47:31.484Z,4.19
2022-12-20T17:50:00.108Z,4.20
2022-12-20T17:52:29.143Z,4.20
2022-12-20T17:54:57.889Z,4.22
2022-12-20T17:57:26.436Z,4.26
2022-12-20T17:59:55.551Z,4.29
2022-12-20T18:02:25.340Z,4.30
2022-12-20T18:04:55.217Z,4.32
2022-12-20T18:07:23.620Z,4.34
2022-12-20T18:09:52.182Z,4.34
2022-12-20T18:12:20.789Z,4.36
2022-12-20T18:14:50.138Z,4.38
2022-12-20T18:17:19.109Z,4.37
2022-12-20T18:19:47.923Z,4.36
2022-12-20T18:22:18.724Z,4.38
2022-12-20T18:24:47.719Z,4.38
2022-12-20T18:27:16.919Z,4.38
2022-12-20T18:29:52.298Z,4.38
2022-12-20T18:32:26.586Z,4.34
2022-12-20T18:35:32.137Z,4.36
2022-12-20T18:38:04.436Z,4.38
2022-12-20T18:40:55.790Z,4.40
2022-12-20T18:43:25.484Z,4.43
2022-12-20T18:49:42.711Z,4.49
2022-12-20T18:52:11.394Z,4.49
2022-12-20T18:55:18.076Z,4.49
2022-12-20T18:57:46.678Z,4.50
2022-12-20T19:00:21.129Z,4.52
2022-12-20T19:02:50.038Z,4.51
2022-12-20T19:05:32.099Z,4.51
2022-12-20T19:08:00.904Z,4.48
2022-12-20T19:10:33.343Z,4.47
2022-12-20T19:13:06.158Z,4.45
2022-12-20T19:15:35.138Z,4.44
2022-12-20T19:18:04.304Z,4.45
2022-12-20T19:20:35.603Z,4.46
2022-12-20T19:23:07.460Z,4.47
2022-12-20T19:25:37.830Z,4.46
2022-12-20T19:28:06.486Z,4.43
2022-12-20T19:30:35.107Z,4.42
2022-12-20T19:33:03.878Z,4.42
2022-12-20T19:35:54.869Z,4.42
2022-12-20T19:38:20.608Z,4.41
2022-12-20T19:40:53.136Z,4.41
2022-12-20T19:43:25.001Z,4.42
2022-12-20T19:45:56.066Z,4.44
2022-12-20T19:48:24.563Z,4.47
2022-12-20T19:51:02.536Z,4.50
2022-12-20T19:53:31.580Z,4.51
2022-12-20T19:56:00.090Z,4.51
2022-12-20T19:58:28.584Z,4.49
2022-12-20T20:01:00.405Z,4.46
2022-12-20T20:03:29.227Z,4.42
2022-12-20T20:05:58.450Z,4.41
2022-12-20T20:08:27.487Z,4.42
2022-12-20T20:10:58.237Z,4.43
2022-12-20T20:13:28.994Z,4.40
2022-12-20T20:16:09.954Z,4.38
2022-12-20T20:18:51.606Z,4.36
2022-12-20T20:21:31.066Z,4.33
2022-12-20T20:24:02.981Z,4.30
2022-12-20T20:26:38.403Z,4.26
2022-12-20T20:29:19.752Z,4.27
2022-12-20T20:31:53.460Z,4.26
2022-12-20T20:34:23.334Z,4.27
2022-12-20T20:36:56.837Z,4.28
2022-12-20T20:39:29.058Z,4.25
2022-12-20T20:42:03.004Z,4.24
2022-12-20T20:44:43.532Z,4.25
2022-12-20T20:47:16.340Z,4.21
2022-12-20T20:49:45.473Z,4.20
2022-12-20T20:52:17.091Z,4.20
2022-12-20T20:54:46.559Z,4.22
2022-12-20T20:57:15.111Z,4.21
2022-12-20T20:59:44.162Z,4.21
2022-12-20T21:02:14.437Z,4.24
2022-12-20T21:04:59.342Z,4.26
2022-12-20T21:07:32.089Z,4.28
2022-12-20T21:10:01.469Z,4.30
2022-12-20T21:12:29.918Z,4.32
2022-12-20T21:17:49.541Z,4.32
2022-12-20T21:20:25.452Z,4.32
2022-12-20T21:22:54.987Z,4.34
2022-12-20T21:25:27.158Z,4.35
2022-12-20T21:27:56.716Z,4.35
2022-12-20T21:30:25.963Z,4.36
2022-12-20T21:32:56.071Z,4.38
2022-12-20T21:35:24.801Z,4.38
2022-12-20T21:37:53.302Z,4.42
2022-12-20T21:40:23.642Z,4.44
2022-12-20T21:42:55.854Z,4.46
2022-12-20T21:45:24.559Z,4.48
2022-12-20T21:47:56.938Z,4.48
2022-12-20T21:50:30.338Z,4.51
2022-12-20T21:52:58.900Z,4.52
2022-12-20T21:55:27.279Z,4.52
2022-12-20T21:57:57.660Z,4.53
2022-12-20T22:00:26.091Z,4.53
2022-12-20T22:02:57.143Z,4.53
2022-12-20T22:05:25.788Z,4.54
2022-12-20T22:07:57.650Z,4.53
2022-12-20T22:10:27.405Z,4.53
2022-12-20T22:12:56.399Z,4.54
2022-12-20T22:15:25.117Z,4.53
2022-12-20T22:17:54.381Z,4.54
2022-12-20T22:20:23.081Z,4.54
2022-12-20T22:22:51.959Z,4.55
2022-12-20T22:25:20.765Z,4.56
2022-12-20T22:27:51.059Z,4.57
2022-12-20T22:30:19.983Z,4.55
2022-12-20T22:32:51.944Z,4.53
2022-12-20T22:35:22.883Z,4.52
2022-12-20T22:37:52.251Z,4.51
2022-12-20T22:40:22.609Z,4.52
2022-12-20T22:42:50.988Z,4.54
2022-12-20T22:45:20.125Z,4.56
2022-12-20T22:50:36.053Z,4.57
2022-12-20T22:53:07.631Z,4.55
2022-12-20T22:55:39.571Z,4.55
2022-12-20T22:58:07.986Z,4.55
2022-12-20T23:00:41.143Z,4.53
2022-12-20T23:03:10.587Z,4.53
2022-12-20T23:06:04.955Z,4.52
2022-12-20T23:08:37.572Z,4.52
2022-12-20T23:11:31.867Z,4.51
2022-12-20T23:14:18.393Z,4.51
2022-12-20T23:16:46.886Z,4.49
2022-12-20T23:19:15.443Z,4.49
2022-12-20T23:22:02.503Z,4.49
2022-12-20T23:24:30.844Z,4.49
2022-12-20T23:26:59.338Z,4.48
2022-12-20T23:29:34.552Z,4.49
2022-12-20T23:32:03.067Z,4.48
2022-12-20T23:34:31.537Z,4.48
2022-12-20T23:37:00.681Z,4.48
2022-12-20T23:39:28.978Z,4.45
2022-12-20T23:41:58.466Z,4.45
2022-12-20T23:44:26.800Z,4.45
2022-12-20T23:46:55.599Z,4.46
2022-12-20T23:49:24.032Z,4.45
2022-12-20T23:51:52.557Z,4.44
2022-12-20T23:54:21.185Z,4.42
2022-12-20T23:56:50.211Z,4.39
2022-12-20T23:59:19.308Z,4.35
